Marcel Vogel

Recruteur - Werder Bremen
30 Janv 2028
Dimanche
Processus

Personnalité

Adaptabilité (6) Ambition (16) Controverse (11) Loyauté (16) Pression (5) Professionnalisme (17) Sportivité (13) Tempérament (6)

Profil

Style d'entraînement Démocratique
Diplôme National A
Détermination 8
Gestion des joueurs 11
Motivation 9
Discipline 11
Satisfaction professionnelle
100%
Fatigue
0%
Rôle Recruteur
Salaire 42.8K p/s
Contrat 14.03.2029

Performance

Comportement Bon
Efficacité de l'entraînement
44%
Développement des joueurs
65%
Prévention des blessures
30%
Mise en place tactique
25%

Événements récents

A participé à une réunion de recrutement maintenant
A participé à une réunion de recrutement maintenant
A recommandé une cible de transfert maintenant
A recommandé une cible de transfert maintenant
A participé à une réunion de recrutement maintenant
A recommandé une cible de transfert maintenant
A recommandé une cible de transfert maintenant
A présenté un dossier au conseil maintenant

Suivi en cours

237
Joueur Club Statut Capacité Confiance Observé Dernière observation Dernier vote
Vinícius Lira São Paulo Actif 117 / 126 40% 4 25.01.2028 -
Pau Cubarsí Real Sociedad Actif 158 / 165 40% 5 25.01.2028 -
Olivier Mambwa Young Boys Actif 111 / 116 40% 6 25.01.2028 -
Ethan Nwaneri Arsenal Actif 153 / 157 40% 1 17.01.2028 -
Gilberto Mora Guadalajara Négociation 140 / 143 40% 1 17.01.2028 -
Francesco Cassata Köln Actif 120 / 123 86% 1 10.01.2028 Approuver
Jeffrey Gouweleeuw FC Augsburg Perdu 132 / 128 86% 1 06.01.2028 -
Roberto Alvarado Borussia Mönchengladbach Négociation 139 / 139 66% 1 01.01.2028 Approuver
Ryan Flamingo PSV Perdu 141 / 144 66% 1 01.01.2028 -
Julio Enciso Aston Villa Négociation 142 / 146 68% 1 01.01.2028 -
Bruno Ogbus St. Pauli Actif 130 / 132 40% 2 08.12.2027 -
Victor Hernandez Santa Fe Actif 116 / 129 40% 15 08.12.2027 -
Agustín De la Cuesta Racing Actif 106 / 125 40% 5 08.12.2027 -
Josh King Newcastle United Actif 144 / 151 40% 6 07.12.2027 -
Jorge Moreno Athletic Bilbao Actif 123 / 132 40% 1 07.12.2027 -
Ollie Scarles West Ham United Actif 134 / 140 40% 8 05.12.2027 -
Josh Nichols Oldham Athletic Actif 116 / 128 40% 2 04.12.2027 -
Jorrel Hato Chelsea Actif 155 / 161 40% 6 02.12.2027 -
Héctor Fort Real Sociedad Actif 138 / 147 40% 3 02.12.2027 -
Sebastián Ramírez Aguilas Doradas Actif 111 / 115 40% 3 30.11.2027 -
Andrej Bačanin Basel Actif 112 / 122 40% 4 30.11.2027 -
Felipe Faúndez O'Higgins Actif 107 / 112 40% 5 28.11.2027 -
Ayden Heaven Portsmouth Actif 148 / 148 40% 4 28.11.2027 -
Archie Gray Southampton Actif 149 / 157 40% 4 27.11.2027 -
Nathan De Cat SC Freiburg Négociation 127 / 137 40% 1 27.11.2027 -
Bung Meng Freimann Luzern Actif 113 / 121 40% 4 25.11.2027 -
Jakob Schöller Altach Actif 113 / 117 40% 4 23.11.2027 -
Fodé Sylla Sion Actif 119 / 122 40% 2 22.11.2027 -
Honest Ahanor Atalanta Actif 138 / 146 40% 2 22.11.2027 -
Josh Acheampong Everton Actif 142 / 144 40% 2 21.11.2027 -
Jussef Nasrawe SV Ried Actif 106 / 107 40% 2 20.11.2027 -
Marc Bernal Sevilla Actif 147 / 154 40% 3 19.11.2027 -
Julián Bazán New York Red Bulls Actif 112 / 114 40% 1 18.11.2027 -
Kosta Nedeljković Aston Villa Actif 132 / 140 40% 2 17.11.2027 -
Nahuel Leivas Montevideo City Torque Actif 103 / 101 40% 2 14.11.2027 -
Kenan Busuladžić Malmo FF Actif 116 / 128 40% 1 11.11.2027 -
Adrian Skogmar Malmo FF Actif 114 / 126 40% 2 08.11.2027 -
Matias Siltanen Malmo FF Actif 122 / 124 40% 4 07.11.2027 -
Caleb Yirenkyi Coventry City Actif 141 / 149 40% 5 01.11.2027 -
Pedro Soma San Diego Football Club Actif 104 / 114 40% 2 26.10.2027 -
Oscar Steinke Brånby Hammarby Actif 105 / 113 40% 1 26.10.2027 -
Kauã Moraes Flamengo Actif 133 / 124 40% 3 24.10.2027 -
Ibrahim Maza Bayer Leverkusen Actif 148 / 152 40% 3 13.10.2027 -
Jonny Shore New York City Actif 95 / 107 40% 1 13.10.2027 -
Giovanni Leoni Lincoln City Actif 139 / 146 40% 1 11.10.2027 -
Dominic Solanke Tottenham Actif 152 / 153 40% 2 05.08.2027 -
Ousmane Camara Castellón Actif 127 / 127 40% 1 05.08.2027 -
Lautaro Martínez Inter Actif 175 / 176 40% 6 02.08.2027 -
Yousef Salech Cardiff City Actif 129 / 132 40% 6 02.08.2027 -
Mikel Oyarzábal Real Sociedad Actif 165 / 157 40% 3 02.08.2027 -
Abel Ruiz Girona Actif 139 / 139 40% 4 14.07.2027 -
Tyrese Campbell Sheffield United Actif 134 / 131 40% 4 14.07.2027 -
Mohamed-Ali Cho Hull City Actif 137 / 141 40% 2 12.07.2027 -
Borja Mayoral Getafe Actif 143 / 141 40% 2 12.07.2027 -
Yusi Alavés Actif 128 / 134 40% 2 01.07.2027 -
Salvador Blopá Sporting CP Actif 121 / 124 40% 1 01.07.2027 -
Ivan Giraldo Valencia Actif 124 / 130 40% 3 28.06.2027 -
Alpha Touré FC Metz Actif 117 / 123 40% 2 28.06.2027 -
Zian Flemming Ipswich Town Actif 134 / 131 40% 2 27.06.2027 -
Georginio Rutter Brighton Actif 149 / 152 40% 6 26.06.2027 -
Ismaïla Sarr Crystal Palace Actif 151 / 152 40% 5 26.06.2027 -
Javi Puado Espanyol Actif 150 / 150 40% 2 25.06.2027 -
Jorge Pascual Granada Actif 138 / 139 40% 1 25.06.2027 -
Andrés Martín Racing Santander Actif 137 / 134 40% 9 22.06.2027 -
Roberto Fernández Braga Actif 142 / 147 40% 8 22.06.2027 -
Gonzalo Fulham Actif 151 / 152 40% 6 21.06.2027 -
Aune Heggebø West Bromwich Albion Actif 128 / 131 40% 2 19.06.2027 -
Isaac Romero Sevilla Actif 145 / 146 40% 7 18.06.2027 -
Georges Mikautadze Villarreal Actif 154 / 155 40% 7 17.06.2027 -
Nicolas Jackson Aston Villa Actif 153 / 145 40% 4 17.06.2027 -
Germán Valera Elche Actif 138 / 135 40% 2 16.06.2027 -
Thiago Brentford Actif 145 / 150 40% 5 15.06.2027 -
Jonathan Dubasin Osasuna Actif 145 / 141 40% 4 15.06.2027 -
Taty Castellanos West Ham United Actif 151 / 146 40% 1 02.06.2027 -
Exequiel Palacios Lazio Actif 157 / 157 66% 1 01.06.2027 Approuver
Tyler Morton Olympique Lyonnais Perdu 142 / 145 68% 1 01.06.2027 Approuver
Maximilian Beier Borussia Dortmund Actif 154 / 147 40% 8 30.05.2027 -
Ademola Lookman Atlético Madrid Actif 163 / 155 40% 3 30.05.2027 -
Chupete Málaga Actif 131 / 133 40% 7 29.05.2027 -
Joe Gelhardt Hull City Actif 137 / 133 40% 4 26.05.2027 -
Assane Diao Como Actif 144 / 147 40% 9 25.05.2027 -
David Larrubia Málaga Actif 134 / 133 40% 3 22.05.2027 -
Pablo Torre Mallorca Actif 147 / 147 40% 1 22.05.2027 -
Iván Romero Levante Actif 137 / 136 40% 2 19.05.2027 -
Jon Morcillo Almería Actif 134 / 133 40% 1 19.05.2027 -
Giacomo Raspadori Atalanta Actif 149 / 145 40% 4 17.05.2027 -
Maroan Sannadi Athletic Bilbao Actif 136 / 135 40% 1 17.05.2027 -
Gonçalo Oliveira Benfica Actif 109 / 117 40% 1 17.05.2027 -
Álex Baena Atlético Madrid Actif 160 / 160 40% 4 15.05.2027 -
Manor Solomon West Ham United Actif 143 / 138 40% 1 15.05.2027 -
Jesús Rodríguez Como Actif 143 / 149 40% 1 14.05.2027 -
Diego López Valencia Actif 141 / 141 40% 2 10.05.2027 -
Morgan Gibbs-White Nottingham Forest Actif 155 / 152 40% 3 08.05.2027 -
Diego Lainez Tigres Actif 137 / 137 40% 5 08.05.2027 -
Kevin Fulham Actif 153 / 152 40% 2 08.05.2027 -
Saïd El Mala Köln Actif 136 / 141 40% 3 06.05.2027 -
Hugo Cuypers Monterrey Actif 134 / 124 40% 1 06.05.2027 -
Gorka Gorosabel Real Sociedad Actif 108 / 119 40% 1 06.05.2027 -
Lander Astiazarán Real Sociedad Actif 106 / 113 40% 1 06.05.2027 -
Alexis Vega Feyenoord Actif 145 / 143 40% 3 28.04.2027 -
Adam Hložek TSG Hoffenheim Actif 141 / 141 40% 2 27.04.2027 Plus d'infos
Carlos Álvarez Club America Actif 143 / 147 40% 2 25.04.2027 -
Manu Koné AS Roma Actif 168 / 163 40% 1 25.04.2027 -
Illaijh de Ruijter ADO Den Haag Actif 113 / 123 40% 1 25.04.2027 -
Jean-Philippe Mateta FC Augsburg Actif 153 / 156 40% 1 18.04.2027 -
Bryan Gil Girona Actif 151 / 144 40% 1 17.04.2027 -
Yeremy Pino Crystal Palace Actif 153 / 150 40% 1 17.04.2027 -
Jan Virgili Club Brugge Actif 132 / 138 40% 1 16.04.2027 -
Lautaro Millán Osasuna Actif 122 / 128 40% 1 16.04.2027 -
Othmane Maamma Watford Actif 125 / 128 40% 1 16.04.2027 -
Riley Owen Stevenage Actif 103 / 104 40% 2 12.04.2027 -
Osame Sahraoui LOSC Lille Actif 145 / 144 40% 3 12.04.2027 -
Mikel Jauregizar Athletic Bilbao Actif 157 / 160 40% 2 12.04.2027 -
Victor Froholdt Porto Actif 151 / 158 40% 1 12.04.2027 -
Ez Abde Betis Actif 150 / 150 40% 4 11.04.2027 -
Aimar Osasuna Actif 147 / 149 40% 1 08.04.2027 -
Luciano Valente Feyenoord Actif 143 / 146 40% 1 08.04.2027 Plus d'infos
Oli McBurnie Hull City Actif 137 / 136 40% 1 31.03.2027 -
Boubacar Kamara Aston Villa Actif 163 / 165 40% 1 30.03.2027 -
Ismael Díaz Leon Actif 126 / 126 40% 2 29.03.2027 -
Pau Víctor Braga Actif 140 / 138 40% 1 28.03.2027 -
Marcelo Allende Mamelodi Sundowns Actif 128 / 128 40% 1 25.03.2027 -
Jamie Leweling VfB Stuttgart Actif 152 / 153 40% 2 24.03.2027 -
Luis Suárez Sporting CP Actif 158 / 158 40% 1 20.03.2027 -
Moisés Caicedo Chelsea Actif 173 / 174 40% 3 15.03.2027 -
Antoni Milambo Brentford Actif 137 / 146 40% 2 15.03.2027 -
Sorriso Famalicao Actif 129 / 130 40% 1 15.03.2027 -
Malick Fofana Sunderland Actif 147 / 148 40% 1 15.03.2027 -
Olívio Tomé Benfica Actif 111 / 110 40% 1 12.03.2027 -
Gianluca Prestianni Benfica Actif 133 / 134 40% 1 12.03.2027 -
Rocco Vata Watford Actif 120 / 126 40% 1 11.03.2027 -
Can Uzun Eintracht Frankfurt Actif 141 / 148 40% 1 11.03.2027 -
Kees Smit AZ Actif 141 / 144 40% 1 09.03.2027 -
João Teixeira Porto Actif 110 / 115 40% 1 09.03.2027 -
Kazunari Kita Real Sociedad Actif 94 / 103 40% 1 09.03.2027 -
Finn Jeltsch VfB Stuttgart Actif 137 / 143 40% 2 08.03.2027 -
Yussif Saidu Zaragoza Actif 120 / 124 40% 1 08.03.2027 -
Louis Leroux FC Nantes Actif 123 / 127 40% 1 01.03.2027 -
James Dornelly Peterborough United Actif 103 / 110 40% 1 01.03.2027 -
Luca Kilian Köln Actif 110 / 116 86% 1 25.01.2027 Approuver
Andrej Ilić Union Berlin Actif 134 / 134 30% 1 / 1m 20.01.2027 -
Niklas Hedl Rapid Wien Actif 126 / 120 40% 2 31.12.2026 -
Habib Diarra Sunderland Actif 137 / 145 40% 2 30.12.2026 -
Ilay Camara Anderlecht Actif 130 / 129 40% 1 30.12.2026 -
Pablo Barrios Atlético Madrid Actif 158 / 153 40% 7 29.12.2026 -
Aaron Hickey Brentford Actif 145 / 144 40% 3 29.12.2026 -
Metinho Basel Actif 133 / 127 40% 2 29.12.2026 -
Edoardo Bove Watford Actif 132 / 131 40% 3 28.12.2026 -
Beñat Turrientes Real Sociedad Actif 142 / 143 40% 2 28.12.2026 -
Marc Pubill Atlético Madrid Actif 141 / 141 40% 3 26.12.2026 -
Lee Tae-Suk Austria Wien Actif 124 / 126 40% 2 26.12.2026 -
Fabian Rieder FC Augsburg Actif 136 / 131 40% 1 26.12.2026 -
Farès Chaïbi Eintracht Frankfurt Actif 135 / 137 40% 1 25.12.2026 -
Lucien Agoumé Sevilla Actif 143 / 139 40% 3 23.12.2026 -
Ousmane Diomande Nottingham Forest Actif 152 / 152 40% 1 23.12.2026 -
Lewis Hall Newcastle United Actif 145 / 147 40% 2 22.12.2026 -
Jarrad Branthwaite Everton Actif 152 / 157 40% 1 22.12.2026 -
Carlos Jimenez Veracruz Actif 117 / 124 40% 1 19.12.2026 -
Manu Rodríguez Gijón Actif 104 / 104 40% 1 18.12.2026 -
Ilaix Moriba Celta Actif 148 / 145 40% 1 18.12.2026 -
Samuele di Benedetto Twente Actif 110 / 114 40% 2 16.12.2026 -
Alex Scott Bournemouth Actif 146 / 156 40% 2 16.12.2026 -
Kirill Glebov CSKA Moscow Actif 130 / 126 40% 2 16.12.2026 -
Lorenzo Amatucci Deportivo La Coruña Actif 130 / 137 40% 1 16.12.2026 -
Paul Koller Sturm Graz Actif 119 / 116 40% 4 13.12.2026 -
Nico González Newcastle United Actif 161 / 161 40% 2 12.12.2026 -
Yehor Yarmoliuk Brentford Actif 144 / 154 40% 1 12.12.2026 -
Mattia Zanotti Young Boys Actif 133 / 137 40% 3 11.12.2026 -
Elliot Anderson Manchester City Actif 153 / 148 40% 2 11.12.2026 -
Eric Martel Mainz 05 Actif 135 / 139 40% 2 10.12.2026 -
Arnau Martínez Valencia Actif 142 / 143 40% 2 10.12.2026 -
Víctor Guzmán Monterrey Actif 130 / 124 40% 1 10.12.2026 -
Bobby Clark Derby County Actif 121 / 122 40% 1 10.12.2026 -
Vinícius Júnior Paris Saint-Germain Actif 174 / 172 40% 3 08.12.2026 -
Rilind Nivokazi Sion Actif 120 / 124 40% 1 08.12.2026 -
Yorbe Vertessen Red Bull Salzburg Actif 130 / 131 40% 1 08.12.2026 -
Frans Krätzig Red Bull Salzburg Actif 131 / 134 40% 2 07.12.2026 -
Levi Colwill Chelsea Actif 159 / 165 40% 1 07.12.2026 -
Philippe Keny Zurich Actif 122 / 121 40% 1 06.12.2026 -
Omar El Hilali Espanyol Actif 148 / 148 40% 1 03.12.2026 -
Bright Arrey-Mbi Braga Actif 136 / 138 40% 1 01.12.2026 -
Bećir Omeragić Basel Actif 136 / 140 40% 2 30.11.2026 -
José Ángel Carmona Sevilla Actif 146 / 148 40% 3 28.11.2026 -
Armin Gigović Young Boys Actif 122 / 124 40% 1 27.11.2026 -
Noah Sadiki Sunderland Actif 145 / 146 40% 3 26.11.2026 -
Samuel Marques Grasshopper Actif 112 / 113 40% 1 25.11.2026 -
Kyriani Sabbe Club Brugge Actif 120 / 121 40% 1 25.11.2026 -
Brooke Norton-Cuffy Hull City Actif 133 / 142 40% 1 25.11.2026 -
Evan Eghosa SV Ried Actif 102 / 111 40% 1 20.11.2026 -
Toby Collyer West Bromwich Albion Actif 126 / 130 40% 1 19.11.2026 -
Daijiro Chirino Almería Actif 129 / 127 40% 1 19.11.2026 -
Ange Ahoussou Rapid Wien Actif 122 / 128 40% 1 17.11.2026 -
Gerard Martín Barcelona Actif 146 / 148 40% 1 16.11.2026 -
João Neves Paris Saint-Germain Actif 163 / 163 40% 1 16.11.2026 -
Tino Livramento Newcastle United Actif 152 / 151 40% 1 12.11.2026 -
Tristan Degreef Anderlecht Actif 124 / 131 40% 1 09.11.2026 -
Adrien Truffert Bournemouth Actif 152 / 151 40% 1 08.11.2026 -
Ian Maatsen Aston Villa Actif 148 / 155 40% 1 08.11.2026 -
Manuel Roffo Hajduk Split Actif 130 / 120 40% 2 02.11.2026 -
Juan-José Perea Zurich Actif 125 / 118 40% 1 02.11.2026 -
Leo Román Deportivo La Coruña Actif 147 / 143 40% 1 02.11.2026 -
Srđan Hrstić Altach Actif 104 / 107 40% 2 29.10.2026 -
Julian von Moos Grasshopper Actif 119 / 116 40% 2 28.10.2026 -
Sinan Karweina Luzern Actif 111 / 114 40% 1 28.10.2026 -
Ferran Torres Paris Saint-Germain Actif 167 / 162 40% 1 27.10.2026 -
Wessam Abou Ali Columbus Crew Actif 129 / 129 40% 1 15.10.2026 -
Maurits Kjærgaard Red Bull Salzburg Actif 130 / 131 40% 3 11.10.2026 -
Christantus Uche Getafe Actif 136 / 133 40% 1 11.10.2026 -
Josias Lukembila Sion Actif 119 / 114 40% 2 10.10.2026 -
Germán Berterame Inter Miami CF Actif 133 / 126 40% 1 10.10.2026 -
Robin Roefs Sunderland Actif 142 / 147 40% 1 10.10.2026 -
Giorgi Mamardashvili Liverpool Actif 158 / 160 40% 1 07.10.2026 -
Darian Maleš Young Boys Actif 121 / 116 40% 3 06.10.2026 -
Patrick Schulte Columbus Crew Actif 122 / 120 40% 2 04.10.2026 -
Igor Nikić Mirandés Actif 116 / 122 40% 1 03.10.2026 -
Martín Ojeda Orlando City Actif 135 / 136 40% 1 03.10.2026 -
Matteo di Giusto Luzern Actif 125 / 118 40% 1 30.09.2026 -
Talles Magno New York City Actif 135 / 127 40% 1 29.09.2026 -
Justin Hammel Grasshopper Actif 120 / 124 40% 2 27.09.2026 -
James Trafford Leeds United Actif 143 / 143 40% 1 27.09.2026 -
Cheikh Sabaly Vancouver Whitecaps Actif 126 / 130 40% 1 25.09.2026 -
Julián Álvarez Atlético Madrid Actif 172 / 173 40% 1 24.09.2026 -
CJ dos Santos San Diego Football Club Actif 109 / 106 40% 1 23.09.2026 -
Grégoire Coudert Burnley Actif 125 / 129 40% 1 20.09.2026 -
Ibrahim Salah Basel Actif 119 / 127 40% 1 19.09.2026 -
Lukas Gütlbauer Wolfsberger AC Actif 119 / 121 40% 1 17.09.2026 -
Joseph Leclercq Tottenham Actif 148 / 146 40% 1 17.09.2026 -
Ilyas Chouaref Sion Actif 124 / 116 40% 1 17.09.2026 -
João Pedro Chelsea Actif 148 / 145 40% 1 17.09.2026 -
Nicolás Sumavil Platense Actif 116 / 116 40% 1 15.09.2026 -
George Wickens Lincoln City Actif 114 / 112 40% 1 15.09.2026 -
Luiz Júnior Villarreal Actif 145 / 148 40% 1 14.09.2026 -
Caoimhin Kelleher Brentford Actif 143 / 144 40% 1 14.09.2026 -
Kévin Denkey FC Cincinnati Actif 121 / 117 40% 1 10.09.2026 -
Tadeo Allende Inter Miami CF Actif 126 / 112 40% 1 09.09.2026 -
Ousmane Diawara Altach Actif 104 / 106 40% 1 07.09.2026 -
Nico Williams Athletic Bilbao Actif 164 / 160 40% 1 01.08.2026 -